Time;durP1;ratioP1;P1;durP2;ratioP2;P2;SDS_P1;SDS_P2;PMS_P1;PMS_P2;Temp;Humidity;BMP_temperature;BMP_pressure;BME280_temperature;BME280_humidity;BME280_pressure;Samples;Min_cycle;Max_cycle;Signal;HPM_P1;HPM_P2
2023/03/18 06:00:52;;;;;;;3.60;2.20;;;10.80;97.20;;;;;;1720603;28;20614;-66
2023/03/18 06:01:43;;;;;;;3.58;2.00;;;10.80;97.20;;;;;;1720529;28;20212;-66
2023/03/18 06:02:35;;;;;;;2.58;1.95;;;10.80;97.20;;;;;;1720556;28;20239;-68
2023/03/18 06:03:26;;;;;;;5.22;2.00;;;10.80;97.20;;;;;;1720523;28;20209;-65
2023/03/18 06:04:18;;;;;;;4.43;1.95;;;10.80;97.20;;;;;;1720514;28;20244;-66
2023/03/18 06:05:11;;;;;;;2.33;2.13;;;10.80;97.20;;;;;;1720429;28;20733;-66
2023/03/18 06:06:03;;;;;;;4.00;2.17;;;10.80;97.20;;;;;;1713863;28;20289;-66
2023/03/18 06:06:54;;;;;;;3.58;2.10;;;10.80;97.20;;;;;;1713885;28;20593;-66
2023/03/18 06:07:45;;;;;;;4.97;2.30;;;10.80;97.20;;;;;;1713876;28;20201;-66
2023/03/18 06:08:36;;;;;;;2.20;2.00;;;10.80;97.20;;;;;;1713583;28;20236;-66
2023/03/18 06:09:28;;;;;;;2.17;1.97;;;10.80;97.20;;;;;;1713869;28;20205;-67
2023/03/18 06:10:20;;;;;;;3.33;2.15;;;10.80;97.20;;;;;;1713668;28;20453;-65
2023/03/18 06:11:12;;;;;;;2.20;2.00;;;10.80;97.20;;;;;;1713890;28;20233;-66
2023/03/18 06:12:04;;;;;;;4.03;2.00;;;10.80;97.20;;;;;;1713815;28;20216;-66
2023/03/18 06:12:56;;;;;;;3.20;1.80;;;10.80;97.20;;;;;;1713839;28;20205;-66
2023/03/18 06:13:48;;;;;;;3.65;2.10;;;10.80;97.20;;;;;;1713772;28;20651;-66
2023/03/18 06:14:40;;;;;;;4.18;3.20;;;10.80;97.20;;;;;;1713765;28;20212;-66
2023/03/18 06:15:30;;;;;;;4.93;3.70;;;10.80;97.20;;;;;;1713721;28;20244;-66
2023/03/18 06:16:24;;;;;;;4.87;4.17;;;10.80;97.20;;;;;;1713814;28;20224;-65
2023/03/18 06:17:15;;;;;;;5.53;5.03;;;10.80;97.20;;;;;;1713940;28;20449;-66
2023/03/18 06:18:07;;;;;;;4.43;3.73;;;10.80;97.20;;;;;;1713876;28;20362;-66
2023/03/18 06:18:57;;;;;;;5.43;3.25;;;10.80;97.20;;;;;;1713571;28;20631;-66
2023/03/18 06:19:49;;;;;;;3.40;3.10;;;10.80;97.20;;;;;;1713762;28;20577;-66
2023/03/18 06:20:40;;;;;;;4.50;2.90;;;10.70;97.20;;;;;;1713709;28;20284;-66
2023/03/18 06:21:32;;;;;;;5.67;3.03;;;10.70;97.20;;;;;;1713796;28;20280;-66
2023/03/18 06:22:23;;;;;;;5.10;3.30;;;10.70;97.20;;;;;;1713787;28;20448;-66
2023/03/18 06:23:14;;;;;;;3.23;2.83;;;10.70;97.20;;;;;;1713835;28;20212;-66
2023/03/18 06:24:06;;;;;;;3.92;3.53;;;10.70;97.20;;;;;;1713860;28;20206;-66
2023/03/18 06:24:57;;;;;;;3.92;3.03;;;10.70;97.20;;;;;;1714568;28;20240;-67
2023/03/18 06:25:49;;;;;;;4.82;3.90;;;10.70;97.20;;;;;;1715154;28;20320;-66
2023/03/18 06:26:42;;;;;;;4.63;3.78;;;10.80;97.20;;;;;;1715092;28;20198;-66
2023/03/18 06:27:33;;;;;;;4.47;3.88;;;10.80;97.20;;;;;;1719246;28;20201;-67
2023/03/18 06:28:25;;;;;;;4.37;3.97;;;10.80;97.20;;;;;;1721598;28;20211;-68
2023/03/18 06:29:17;;;;;;;5.50;3.72;;;10.80;97.20;;;;;;1721120;28;20208;-66
2023/03/18 06:30:10;;;;;;;5.78;3.75;;;10.80;97.20;;;;;;1721450;28;20201;-66
2023/03/18 06:31:01;;;;;;;5.38;3.17;;;10.80;97.20;;;;;;1718094;28;20261;-66
2023/03/18 06:31:54;;;;;;;5.13;3.40;;;10.80;97.20;;;;;;1715115;28;20260;-66
2023/03/18 06:32:45;;;;;;;5.18;3.83;;;10.80;97.20;;;;;;1715029;28;20599;-67
2023/03/18 06:33:37;;;;;;;4.03;2.93;;;10.80;97.20;;;;;;1715108;28;20201;-66
2023/03/18 06:34:27;;;;;;;4.20;3.05;;;10.90;97.20;;;;;;1715078;28;20214;-66
2023/03/18 06:35:19;;;;;;;3.90;2.70;;;10.80;97.20;;;;;;1715062;28;20194;-66
2023/03/18 06:36:11;;;;;;;3.25;2.60;;;10.90;97.20;;;;;;1715068;28;20596;-65
2023/03/18 06:37:03;;;;;;;6.80;2.70;;;10.90;97.20;;;;;;1715148;28;20746;-65
2023/03/18 06:37:54;;;;;;;2.95;2.33;;;10.90;97.20;;;;;;1715066;28;20206;-65
2023/03/18 06:38:46;;;;;;;3.30;2.10;;;11.00;97.20;;;;;;1714854;28;20205;-67
2023/03/18 06:39:37;;;;;;;2.10;1.60;;;11.00;97.20;;;;;;1714961;28;20229;-66
2023/03/18 06:40:29;;;;;;;2.43;2.23;;;11.00;97.20;;;;;;1714994;28;20202;-66
2023/03/18 06:41:19;;;;;;;1.92;1.50;;;11.00;97.20;;;;;;1717776;28;20456;-67
2023/03/18 06:42:11;;;;;;;4.00;1.70;;;11.00;97.20;;;;;;1721711;28;20240;-67
2023/03/18 06:43:02;;;;;;;3.15;1.35;;;11.00;97.20;;;;;;1721728;28;20579;-66
2023/03/18 06:43:53;;;;;;;2.87;1.90;;;11.00;97.20;;;;;;1721714;28;20248;-66
2023/03/18 06:44:50;;;;;;;2.47;1.65;;;11.00;97.20;;;;;;1721762;28;20694;-66
2023/03/18 06:45:42;;;;;;;1.70;1.60;;;11.00;97.20;;;;;;1721781;28;20197;-65
2023/03/18 06:46:32;;;;;;;3.05;1.80;;;11.00;97.20;;;;;;1721712;28;20204;-65
2023/03/18 06:47:25;;;;;;;1.77;1.40;;;10.90;97.20;;;;;;1721759;28;20201;-67
2023/03/18 06:48:17;;;;;;;1.75;1.40;;;10.90;97.20;;;;;;1721680;28;20216;-65
2023/03/18 06:49:10;;;;;;;3.58;1.50;;;11.00;97.20;;;;;;1721435;28;20224;-66
2023/03/18 06:50:00;;;;;;;2.75;1.40;;;11.00;97.20;;;;;;1721760;28;20209;-66
2023/03/18 06:50:53;;;;;;;1.80;1.30;;;11.00;97.20;;;;;;1721646;28;20312;-65
2023/03/18 06:51:43;;;;;;;1.58;1.48;;;11.00;97.20;;;;;;1721600;28;20205;-66
2023/03/18 06:52:35;;;;;;;2.50;1.47;;;11.00;97.20;;;;;;1721717;28;20252;-65
2023/03/18 06:53:26;;;;;;;1.90;1.70;;;11.00;97.20;;;;;;1721725;28;20205;-66
2023/03/18 06:54:19;;;;;;;2.00;1.33;;;11.00;97.20;;;;;;1721665;28;20201;-65
2023/03/18 06:55:09;;;;;;;2.75;1.63;;;11.10;97.20;;;;;;1721584;28;20452;-67
2023/03/18 06:56:01;;;;;;;2.13;1.50;;;11.10;97.20;;;;;;1721558;28;20211;-66
2023/03/18 06:56:52;;;;;;;3.78;1.70;;;11.10;97.20;;;;;;1721652;28;20201;-65
2023/03/18 06:57:44;;;;;;;1.87;1.53;;;11.10;97.20;;;;;;1719933;28;20204;-65
2023/03/18 06:58:35;;;;;;;3.25;1.90;;;11.10;97.20;;;;;;1721355;28;20240;-65
2023/03/18 06:59:27;;;;;;;2.70;1.75;;;11.20;97.20;;;;;;1721185;28;20189;-66
2023/03/18 07:00:20;;;;;;;2.67;1.40;;;11.20;97.20;;;;;;1721515;28;20324;-66
2023/03/18 07:01:12;;;;;;;1.60;1.50;;;11.20;97.20;;;;;;1721686;28;20240;-66
2023/03/18 07:02:04;;;;;;;4.32;1.80;;;11.30;97.20;;;;;;1721601;28;20212;-65
2023/03/18 07:02:57;;;;;;;1.90;1.80;;;11.30;97.20;;;;;;1721626;28;20207;-65
2023/03/18 07:03:48;;;;;;;3.40;1.58;;;11.40;97.20;;;;;;1721669;28;20402;-65
2023/03/18 07:04:40;;;;;;;1.83;1.40;;;11.40;97.20;;;;;;1721624;28;20237;-65
2023/03/18 07:05:31;;;;;;;1.83;1.48;;;11.50;97.20;;;;;;1718530;28;20205;-66
2023/03/18 07:06:23;;;;;;;2.30;1.75;;;11.60;97.20;;;;;;1714882;28;20268;-66
2023/03/18 07:07:14;;;;;;;1.55;1.35;;;11.60;97.20;;;;;;1714883;28;20241;-68
2023/03/18 07:08:06;;;;;;;4.80;1.83;;;11.70;97.20;;;;;;1714853;28;20213;-65
2023/03/18 07:08:58;;;;;;;2.65;1.63;;;11.70;97.20;;;;;;1714603;28;20823;-65
2023/03/18 07:09:50;;;;;;;2.50;1.50;;;11.80;97.20;;;;;;1714779;28;20664;-66
2023/03/18 07:10:41;;;;;;;2.22;1.40;;;11.90;97.20;;;;;;1714800;28;20229;-66
2023/03/18 07:11:32;;;;;;;1.58;1.42;;;11.90;97.20;;;;;;1714904;28;20734;-66
2023/03/18 07:12:23;;;;;;;2.70;1.65;;;12.00;97.20;;;;;;1714781;28;20202;-66
2023/03/18 07:13:15;;;;;;;3.17;1.60;;;12.00;97.20;;;;;;1714822;28;20201;-66
2023/03/18 07:14:06;;;;;;;2.53;1.60;;;12.10;97.20;;;;;;1720564;28;20205;-65
2023/03/18 07:14:58;;;;;;;2.47;1.83;;;12.20;97.20;;;;;;1721517;28;20590;-65
2023/03/18 07:15:49;;;;;;;2.10;1.35;;;12.30;97.20;;;;;;1721450;28;20229;-65
2023/03/18 07:16:41;;;;;;;2.10;1.60;;;12.30;97.20;;;;;;1721505;28;20263;-67
2023/03/18 07:17:32;;;;;;;2.20;1.60;;;12.40;97.20;;;;;;1721542;28;20209;-66
2023/03/18 07:18:25;;;;;;;2.27;1.60;;;12.40;97.20;;;;;;1721489;28;20211;-67
2023/03/18 07:19:16;;;;;;;2.30;1.50;;;12.50;97.20;;;;;;1721493;28;20201;-64
2023/03/18 07:20:09;;;;;;;1.88;1.30;;;12.50;97.20;;;;;;1721558;28;20197;-65
2023/03/18 07:21:00;;;;;;;2.10;1.40;;;12.60;97.20;;;;;;1721445;28;20228;-66
2023/03/18 07:21:52;;;;;;;2.80;1.60;;;12.60;97.20;;;;;;1721503;28;20208;-65
2023/03/18 07:22:44;;;;;;;2.60;1.70;;;12.70;97.20;;;;;;1721390;28;20255;-65
2023/03/18 07:23:36;;;;;;;2.55;1.60;;;12.80;97.20;;;;;;1721523;28;20732;-65
2023/03/18 07:24:27;;;;;;;2.72;1.77;;;12.90;97.20;;;;;;1721572;28;20213;-66
2023/03/18 07:25:19;;;;;;;2.37;1.60;;;12.90;97.20;;;;;;1721467;28;20277;-65
2023/03/18 07:26:11;;;;;;;3.47;1.70;;;13.00;97.20;;;;;;1721496;28;20447;-65
2023/03/18 07:27:03;;;;;;;2.30;2.00;;;13.00;97.20;;;;;;1721422;28;20243;-65
2023/03/18 07:27:54;;;;;;;3.13;1.67;;;13.10;97.20;;;;;;1721406;28;20204;-64
2023/03/18 07:28:45;;;;;;;4.90;1.80;;;13.10;97.20;;;;;;1721181;28;20221;-66
2023/03/18 07:29:36;;;;;;;2.55;1.60;;;13.20;97.20;;;;;;1721412;28;20697;-65
2023/03/18 07:30:29;;;;;;;4.10;1.60;;;13.30;97.20;;;;;;1716389;28;20652;-65
2023/03/18 07:31:19;;;;;;;4.57;1.85;;;13.30;97.20;;;;;;1714769;28;20803;-65
2023/03/18 07:32:11;;;;;;;4.83;1.63;;;13.40;97.20;;;;;;1714761;28;20335;-65
2023/03/18 07:33:02;;;;;;;3.28;1.80;;;13.40;97.20;;;;;;1714583;28;20206;-65
2023/03/18 07:33:56;;;;;;;3.05;1.40;;;13.50;97.20;;;;;;1714727;28;20497;-65
2023/03/18 07:34:47;;;;;;;3.03;1.95;;;13.50;97.20;;;;;;1714694;28;20213;-66
2023/03/18 07:35:40;;;;;;;1.77;1.60;;;13.60;97.20;;;;;;1714598;28;20213;-64
2023/03/18 07:36:31;;;;;;;3.15;1.70;;;13.60;97.20;;;;;;1713788;28;20213;-65
2023/03/18 07:37:23;;;;;;;2.60;1.80;;;13.70;97.20;;;;;;1714693;28;20237;-65
2023/03/18 07:38:13;;;;;;;3.50;1.80;;;13.70;97.20;;;;;;1714749;28;20469;-65
2023/03/18 07:39:06;;;;;;;2.60;1.77;;;13.80;97.20;;;;;;1714308;28;20305;-64
2023/03/18 07:39:57;;;;;;;2.80;1.70;;;13.80;97.20;;;;;;1714700;28;20205;-65
2023/03/18 07:40:48;;;;;;;3.50;1.50;;;13.90;97.20;;;;;;1714643;28;20221;-64
2023/03/18 07:41:39;;;;;;;2.85;1.80;;;13.90;97.20;;;;;;1714715;28;20210;-65
2023/03/18 07:42:31;;;;;;;2.10;1.70;;;14.00;97.20;;;;;;1714664;28;20257;-64
2023/03/18 07:43:22;;;;;;;6.63;2.05;;;14.00;97.20;;;;;;1714524;28;20665;-65
2023/03/18 07:44:14;;;;;;;2.07;1.33;;;14.10;97.20;;;;;;1714781;28;20210;-65
2023/03/18 07:45:06;;;;;;;1.73;1.63;;;14.10;97.20;;;;;;1714689;28;20228;-65
2023/03/18 07:45:58;;;;;;;2.65;1.63;;;14.10;97.20;;;;;;1714630;28;20209;-66
2023/03/18 07:46:49;;;;;;;2.45;2.13;;;14.20;97.20;;;;;;1715538;28;20208;-66
2023/03/18 07:47:41;;;;;;;2.57;1.57;;;14.20;97.20;;;;;;1714557;28;20198;-64
2023/03/18 07:48:32;;;;;;;2.58;2.10;;;14.30;97.20;;;;;;1714315;28;20206;-65
2023/03/18 07:49:26;;;;;;;4.35;2.08;;;14.40;97.20;;;;;;1714475;28;20194;-64
2023/03/18 07:50:17;;;;;;;4.07;1.90;;;14.40;97.20;;;;;;1715481;28;20324;-65
2023/03/18 07:51:09;;;;;;;2.97;1.77;;;14.40;97.20;;;;;;1714575;28;20205;-65
2023/03/18 07:52:00;;;;;;;2.50;1.60;;;14.50;97.20;;;;;;1714593;28;20596;-66
2023/03/18 07:52:52;;;;;;;2.80;1.63;;;14.50;97.20;;;;;;1714503;28;20248;-66
2023/03/18 07:53:44;;;;;;;2.30;1.85;;;14.60;97.20;;;;;;1714547;28;20210;-67
2023/03/18 07:54:36;;;;;;;2.15;1.88;;;14.70;97.20;;;;;;1714586;28;20256;-64
2023/03/18 07:55:26;;;;;;;2.58;1.70;;;14.70;97.20;;;;;;1714556;28;20205;-65
2023/03/18 07:56:19;;;;;;;4.00;1.80;;;14.70;97.20;;;;;;1714524;28;20221;-64
2023/03/18 07:57:10;;;;;;;3.13;1.92;;;14.80;97.20;;;;;;1714500;28;20236;-65
2023/03/18 07:58:03;;;;;;;3.38;1.55;;;14.90;97.20;;;;;;1714551;28;20205;-65
2023/03/18 07:58:54;;;;;;;2.00;1.50;;;14.90;97.20;;;;;;1714185;28;20213;-65
2023/03/18 07:59:45;;;;;;;1.70;1.60;;;15.00;97.20;;;;;;1714512;28;20278;-64
2023/03/18 08:00:36;;;;;;;2.55;1.30;;;15.00;97.20;;;;;;1714520;28;20623;-65
2023/03/18 08:01:28;;;;;;;5.33;2.00;;;15.00;97.20;;;;;;1714529;28;20538;-64
2023/03/18 08:02:20;;;;;;;1.88;1.40;;;15.10;97.20;;;;;;1714524;28;20986;-64
2023/03/18 08:03:12;;;;;;;2.58;1.48;;;15.10;97.20;;;;;;1715668;28;20189;-64
2023/03/18 08:04:04;;;;;;;5.18;2.72;;;15.10;97.20;;;;;;1714395;28;20344;-65
2023/03/18 08:04:57;;;;;;;1.70;1.40;;;15.10;97.20;;;;;;1714607;28;20197;-65
2023/03/18 08:05:48;;;;;;;3.13;1.70;;;15.10;97.20;;;;;;1719608;28;20209;-65
2023/03/18 08:06:40;;;;;;;2.10;1.50;;;15.20;97.20;;;;;;1721116;28;20201;-65
2023/03/18 08:07:31;;;;;;;1.95;1.58;;;15.20;97.20;;;;;;1721193;28;20455;-65
2023/03/18 08:08:23;;;;;;;5.00;1.30;;;15.20;97.20;;;;;;1721189;28;20686;-66
2023/03/18 08:09:14;;;;;;;4.05;1.27;;;15.20;97.20;;;;;;1721174;28;20663;-66
2023/03/18 08:10:08;;;;;;;2.60;2.07;;;15.30;97.20;;;;;;1718854;28;20549;-65
2023/03/18 08:11:01;;;;;;;1.88;1.40;;;15.30;97.20;;;;;;1722223;28;20468;-65
2023/03/18 08:11:52;;;;;;;2.50;1.40;;;15.30;97.20;;;;;;1728025;28;20228;-65
2023/03/18 08:12:43;;;;;;;1.92;1.20;;;15.40;97.20;;;;;;1720153;28;20198;-66
2023/03/18 08:13:36;;;;;;;2.23;1.50;;;15.40;97.20;;;;;;1714518;28;20198;-65
2023/03/18 08:14:26;;;;;;;4.28;2.78;;;15.50;97.20;;;;;;1714493;28;20500;-66
2023/03/18 08:15:18;;;;;;;2.67;1.80;;;15.60;97.20;;;;;;1714497;28;20227;-65
2023/03/18 08:16:09;;;;;;;2.10;1.83;;;15.60;97.20;;;;;;1714398;28;20253;-65
2023/03/18 08:17:02;;;;;;;3.70;2.43;;;15.70;97.20;;;;;;1714453;28;20293;-65
2023/03/18 08:17:53;;;;;;;3.95;1.88;;;15.80;97.20;;;;;;1714496;28;20479;-65
2023/03/18 08:18:45;;;;;;;2.23;2.03;;;15.90;97.20;;;;;;1714194;28;20499;-64
2023/03/18 08:19:36;;;;;;;2.67;1.80;;;16.00;97.20;;;;;;1714414;28;20205;-65
2023/03/18 08:20:29;;;;;;;4.50;1.60;;;16.00;97.20;;;;;;1714375;28;20201;-67
2023/03/18 08:21:19;;;;;;;2.40;1.55;;;16.10;97.20;;;;;;1714440;28;20205;-65
2023/03/18 08:22:11;;;;;;;3.57;1.60;;;16.10;97.20;;;;;;1715542;28;20201;-66
2023/03/18 08:23:02;;;;;;;3.22;1.67;;;16.20;97.20;;;;;;1719124;28;20209;-64
2023/03/18 08:23:54;;;;;;;2.87;1.80;;;16.30;97.20;;;;;;1716005;28;20225;-66
2023/03/18 08:24:45;;;;;;;2.35;1.70;;;16.30;97.20;;;;;;1714167;28;20940;-66
2023/03/18 08:25:37;;;;;;;2.27;1.40;;;16.40;97.20;;;;;;1714349;28;20198;-65
2023/03/18 08:26:28;;;;;;;2.20;1.70;;;16.50;97.20;;;;;;1714343;28;20205;-66
2023/03/18 08:27:20;;;;;;;3.23;1.97;;;16.50;97.20;;;;;;1714432;28;20201;-66
2023/03/18 08:28:11;;;;;;;2.80;1.88;;;16.60;97.20;;;;;;1714363;28;20252;-66
2023/03/18 08:29:03;;;;;;;2.70;1.55;;;16.60;97.20;;;;;;1713868;28;20204;-66
2023/03/18 08:29:53;;;;;;;1.75;1.30;;;16.70;97.20;;;;;;1714431;28;20213;-64
2023/03/18 08:30:46;;;;;;;2.70;1.27;;;16.70;97.20;;;;;;1714182;28;20239;-65
2023/03/18 08:31:37;;;;;;;2.75;1.98;;;16.80;97.20;;;;;;1714429;28;20220;-64
2023/03/18 08:32:29;;;;;;;3.10;1.30;;;16.80;97.20;;;;;;1714357;28;20252;-65
2023/03/18 08:33:20;;;;;;;1.88;1.60;;;16.80;97.20;;;;;;1714366;28;20511;-66
2023/03/18 08:34:12;;;;;;;4.90;1.73;;;16.90;97.20;;;;;;1719773;28;20252;-67
2023/03/18 08:35:04;;;;;;;2.90;1.50;;;16.90;97.20;;;;;;1727689;28;20470;-66
2023/03/18 08:35:58;;;;;;;1.85;1.50;;;17.00;97.20;;;;;;1727608;28;20235;-65
2023/03/18 08:36:48;;;;;;;1.73;1.42;;;17.00;97.20;;;;;;1727715;28;20215;-64
2023/03/18 08:37:40;;;;;;;1.80;1.50;;;17.00;97.20;;;;;;1722650;28;20284;-65
2023/03/18 08:38:31;;;;;;;2.70;1.50;;;17.10;97.20;;;;;;1720718;28;20205;-65
2023/03/18 08:39:23;;;;;;;1.50;1.30;;;17.20;97.20;;;;;;1720929;28;20200;-66
2023/03/18 08:40:14;;;;;;;1.85;1.30;;;17.30;97.20;;;;;;1720929;28;20475;-65
2023/03/18 08:41:05;;;;;;;2.50;1.20;;;17.30;97.20;;;;;;1720859;28;20205;-65
2023/03/18 08:41:56;;;;;;;2.13;1.50;;;17.40;97.20;;;;;;1721027;28;20966;-66
2023/03/18 08:42:48;;;;;;;1.90;1.30;;;17.40;97.20;;;;;;1720918;28;20595;-67
2023/03/18 08:43:39;;;;;;;5.10;1.45;;;17.50;97.20;;;;;;1720937;28;20240;-67
2023/03/18 08:44:31;;;;;;;2.75;1.65;;;17.50;97.20;;;;;;1721041;28;20276;-65
2023/03/18 08:45:22;;;;;;;2.55;1.20;;;17.60;97.20;;;;;;1720997;28;20216;-66
2023/03/18 08:46:14;;;;;;;2.20;1.27;;;17.60;97.20;;;;;;1720992;28;20243;-67
2023/03/18 08:47:06;;;;;;;2.13;1.65;;;17.70;97.20;;;;;;1720870;28;20267;-67
2023/03/18 08:47:59;;;;;;;2.30;1.30;;;17.80;97.20;;;;;;1720806;28;20567;-68
2023/03/18 08:48:50;;;;;;;1.75;1.20;;;17.80;97.20;;;;;;1720586;28;20205;-63
2023/03/18 08:49:42;;;;;;;2.03;1.52;;;17.80;97.20;;;;;;1720840;28;20236;-64
2023/03/18 08:50:34;;;;;;;5.55;1.35;;;17.80;97.20;;;;;;1720855;28;20275;-64
2023/03/18 08:51:27;;;;;;;1.67;1.40;;;17.90;97.20;;;;;;1720849;28;20211;-64
2023/03/18 08:52:18;;;;;;;9.52;1.63;;;17.90;97.20;;;;;;1720945;28;20343;-64
2023/03/18 08:53:11;;;;;;;2.13;1.23;;;18.00;97.20;;;;;;1720501;28;20208;-63
2023/03/18 08:54:02;;;;;;;1.85;1.20;;;18.10;97.20;;;;;;1714241;28;20235;-65
2023/03/18 08:54:54;;;;;;;1.58;0.90;;;18.20;97.20;;;;;;1719473;28;20659;-65
2023/03/18 08:55:46;;;;;;;2.75;1.48;;;18.30;97.20;;;;;;1721050;28;20197;-65
2023/03/18 08:56:37;;;;;;;1.52;1.15;;;18.40;97.20;;;;;;1720806;28;20260;-66
2023/03/18 08:57:28;;;;;;;3.25;1.10;;;18.50;97.20;;;;;;1720946;28;20224;-65
2023/03/18 08:58:20;;;;;;;3.20;1.30;;;18.50;97.20;;;;;;1720990;28;20730;-65
2023/03/18 08:59:11;;;;;;;5.57;1.50;;;18.60;97.20;;;;;;1720574;28;20225;-65
2023/03/18 09:00:04;;;;;;;2.37;1.10;;;18.60;97.20;;;;;;1720837;28;20283;-65
2023/03/18 09:00:55;;;;;;;3.03;1.40;;;18.70;97.20;;;;;;1720795;28;20479;-65
2023/03/18 09:01:47;;;;;;;4.60;1.50;;;18.80;97.20;;;;;;1720858;28;20235;-65
2023/03/18 09:02:38;;;;;;;1.00;0.80;;;18.80;97.20;;;;;;1720830;28;20448;-65
2023/03/18 09:03:30;;;;;;;1.30;0.97;;;18.90;97.20;;;;;;1720945;28;20280;-65
2023/03/18 09:04:21;;;;;;;1.40;1.00;;;18.90;97.20;;;;;;1720925;28;20204;-65
2023/03/18 09:05:13;;;;;;;4.43;1.40;;;19.00;97.20;;;;;;1720412;28;20619;-65
2023/03/18 09:06:04;;;;;;;13.00;1.67;;;19.00;97.20;;;;;;1714168;28;20205;-64
2023/03/18 09:06:59;;;;;;;7.70;1.35;;;19.10;97.20;;;;;;1714139;28;20297;-65
2023/03/18 09:07:52;;;;;;;5.13;1.35;;;19.10;96.90;;;;;;1714114;28;20213;-65
2023/03/18 09:08:43;;;;;;;3.88;1.35;;;19.20;96.20;;;;;;1713797;28;20198;-65
2023/03/18 09:09:35;;;;;;;3.78;1.30;;;19.20;96.70;;;;;;1715115;28;20217;-65
2023/03/18 09:10:29;;;;;;;2.67;1.00;;;19.20;95.50;;;;;;1713967;28;20571;-64
2023/03/18 09:11:19;;;;;;;1.92;0.95;;;19.20;95.40;;;;;;1714116;28;20214;-64
2023/03/18 09:12:12;;;;;;;1.50;1.20;;;19.20;95.40;;;;;;1714133;28;20202;-65
2023/03/18 09:13:04;;;;;;;3.28;1.17;;;19.20;95.40;;;;;;1714071;28;20454;-65
2023/03/18 09:13:56;;;;;;;2.97;1.45;;;19.20;95.30;;;;;;1714190;28;20277;-65
2023/03/18 09:14:47;;;;;;;3.58;1.25;;;19.30;95.30;;;;;;1714199;28;20209;-65
2023/03/18 09:15:39;;;;;;;2.53;1.30;;;19.30;95.70;;;;;;1714191;28;20204;-65
2023/03/18 09:16:30;;;;;;;2.45;1.30;;;19.40;96.40;;;;;;1714010;28;20226;-64
2023/03/18 09:17:22;;;;;;;3.00;1.10;;;19.50;96.20;;;;;;1714091;28;20256;-64
2023/03/18 09:18:13;;;;;;;2.60;1.50;;;19.60;95.90;;;;;;1714137;28;20449;-65
2023/03/18 09:19:05;;;;;;;3.38;1.50;;;19.70;95.10;;;;;;1713728;28;20202;-65
2023/03/18 09:19:56;;;;;;;3.20;1.25;;;19.70;94.90;;;;;;1714167;28;20675;-64
2023/03/18 09:20:48;;;;;;;3.00;1.20;;;19.80;95.10;;;;;;1714045;28;20675;-64
2023/03/18 09:21:39;;;;;;;3.58;1.67;;;20.00;95.40;;;;;;1720719;28;20275;-66
2023/03/18 09:22:32;;;;;;;3.20;1.10;;;20.00;95.10;;;;;;1727440;28;20222;-65
2023/03/18 09:23:25;;;;;;;7.57;1.33;;;20.10;95.20;;;;;;1720223;28;20449;-65
2023/03/18 09:24:19;;;;;;;2.42;1.02;;;20.20;94.80;;;;;;1714115;28;20202;-65
2023/03/18 09:25:10;;;;;;;1.75;1.10;;;20.30;94.30;;;;;;1714122;28;20240;-65
2023/03/18 09:26:02;;;;;;;3.28;1.30;;;20.30;93.70;;;;;;1714050;28;20194;-64
2023/03/18 09:26:53;;;;;;;2.47;1.23;;;20.40;93.50;;;;;;1714115;28;20209;-65
2023/03/18 09:27:45;;;;;;;1.57;1.03;;;20.40;93.60;;;;;;1714032;28;20201;-66
2023/03/18 09:28:36;;;;;;;5.25;1.38;;;20.50;93.70;;;;;;1713808;28;20266;-66
2023/03/18 09:29:29;;;;;;;2.20;1.30;;;20.50;93.50;;;;;;1713953;28;20198;-66
2023/03/18 09:30:20;;;;;;;1.70;1.35;;;20.60;93.60;;;;;;1713975;28;20497;-67
2023/03/18 09:31:12;;;;;;;1.57;0.97;;;20.70;93.90;;;;;;1714100;28;20229;-65
2023/03/18 09:32:03;;;;;;;1.75;1.15;;;20.80;93.90;;;;;;1714214;28;20445;-65
2023/03/18 09:32:55;;;;;;;1.70;0.93;;;20.90;92.90;;;;;;1713908;28;20229;-66
2023/03/18 09:33:46;;;;;;;1.67;1.00;;;21.00;92.50;;;;;;1714065;28;20197;-65
2023/03/18 09:34:38;;;;;;;1.77;1.20;;;21.10;92.40;;;;;;1714238;28;20206;-66
2023/03/18 09:35:28;;;;;;;0.90;0.80;;;21.20;92.80;;;;;;1714108;28;20217;-66
2023/03/18 09:36:20;;;;;;;1.33;1.10;;;21.30;92.60;;;;;;1714061;28;20202;-66
2023/03/18 09:37:12;;;;;;;3.80;1.40;;;21.40;92.00;;;;;;1716151;28;20201;-65
2023/03/18 09:38:07;;;;;;;3.47;1.40;;;21.50;91.00;;;;;;1720740;28;20220;-65
2023/03/18 09:38:59;;;;;;;3.50;1.20;;;21.60;91.00;;;;;;1720513;28;20355;-65
2023/03/18 09:39:50;;;;;;;1.67;1.00;;;21.70;90.90;;;;;;1720639;28;20735;-66
2023/03/18 09:40:50;;;;;;;2.17;0.85;;;21.90;90.80;;;;;;1720615;28;20224;-65
2023/03/18 09:41:52;;;;;;;1.80;1.35;;;22.20;90.60;;;;;;1720697;28;20229;-66
2023/03/18 09:42:54;;;;;;;1.20;0.90;;;22.70;90.00;;;;;;1720656;28;20671;-67
2023/03/18 09:44:02;;;;;;;1.92;1.33;;;23.60;88.30;;;;;;1720315;28;20216;-65
2023/03/18 09:44:55;;;;;;;2.38;1.33;;;25.10;87.00;;;;;;1720679;28;20209;-65
2023/03/18 09:45:58;;;;;;;3.15;1.10;;;26.60;85.10;;;;;;1720558;28;20208;-66
2023/03/18 09:47:08;;;;;;;2.20;1.35;;;28.10;83.40;;;;;;1719952;28;20570;-66
2023/03/18 09:48:21;;;;;;;2.42;1.65;;;29.60;80.80;;;;;;1720601;28;20205;-66
2023/03/18 09:49:39;;;;;;;3.80;1.52;;;31.10;78.90;;;;;;1720368;28;20229;-66
2023/03/18 09:50:38;;;;;;;3.67;1.42;;;32.60;75.40;;;;;;1716871;28;20197;-66
2023/03/18 09:51:45;;;;;;;1.90;1.40;;;33.60;74.30;;;;;;1713991;28;20230;-67
2023/03/18 09:52:40;;;;;;;4.15;1.40;;;34.50;72.60;;;;;;1718292;28;20233;-66
2023/03/18 09:53:42;;;;;;;2.75;1.30;;;35.40;71.40;;;;;;1720655;28;20193;-66
2023/03/18 09:54:38;;;;;;;3.35;1.15;;;36.20;70.90;;;;;;1720693;28;20202;-67
2023/03/18 09:55:38;;;;;;;4.20;1.48;;;37.00;70.30;;;;;;1720440;28;20205;-67
2023/03/18 09:56:33;;;;;;;2.25;1.25;;;37.70;68.90;;;;;;1717839;28;20202;-66
2023/03/18 09:57:29;;;;;;;1.95;1.20;;;38.40;67.50;;;;;;1717980;28;20193;-67
2023/03/18 09:58:24;;;;;;;5.18;1.40;;;38.90;66.30;;;;;;1720588;28;20201;-67
2023/03/18 09:59:21;;;;;;;1.55;1.10;;;39.50;65.90;;;;;;1720329;28;20288;-67
2023/03/18 10:00:19;;;;;;;2.70;1.52;;;40.10;65.40;;;;;;1715932;28;20202;-66
2023/03/18 10:01:13;;;;;;;2.65;1.35;;;40.70;64.70;;;;;;1720585;28;20197;-66
2023/03/18 10:02:15;;;;;;;1.80;1.30;;;41.30;64.30;;;;;;1716166;28;20554;-66
2023/03/18 10:03:13;;;;;;;3.40;1.20;;;41.70;62.70;;;;;;1721645;28;20436;-66
2023/03/18 10:04:09;;;;;;;1.85;1.10;;;42.00;61.10;;;;;;1713802;28;20201;-67
2023/03/18 10:05:06;;;;;;;1.67;1.30;;;42.30;61.70;;;;;;1713727;28;20194;-68
2023/03/18 10:06:03;;;;;;;2.50;1.07;;;42.70;61.80;;;;;;1713872;28;20217;-67
2023/03/18 10:07:01;;;;;;;2.00;1.30;;;43.10;61.40;;;;;;1713885;28;20437;-67
2023/03/18 10:07:55;;;;;;;3.43;1.90;;;43.40;60.50;;;;;;1713909;28;20532;-67
2023/03/18 10:08:58;;;;;;;3.27;1.30;;;43.70;60.10;;;;;;1713576;28;20475;-67
2023/03/18 10:09:52;;;;;;;2.37;1.20;;;44.20;60.10;;;;;;1713849;28;20840;-67
2023/03/18 10:10:46;;;;;;;1.43;1.20;;;44.70;60.60;;;;;;1713719;28;20465;-67
2023/03/18 10:11:41;;;;;;;3.57;1.40;;;45.20;60.30;;;;;;1713910;28;20448;-67
2023/03/18 10:12:36;;;;;;;1.90;1.30;;;45.40;58.80;;;;;;1713917;28;20446;-67
2023/03/18 10:13:30;;;;;;;2.10;1.30;;;45.70;58.60;;;;;;1713887;28;20441;-67
2023/03/18 10:14:37;;;;;;;2.93;1.40;;;45.90;58.00;;;;;;1713809;28;20516;-67
2023/03/18 10:15:34;;;;;;;1.77;1.20;;;46.10;57.50;;;;;;1715867;28;20879;-66
2023/03/18 10:16:30;;;;;;;1.67;1.20;;;46.30;57.60;;;;;;1717991;28;20444;-66
2023/03/18 10:17:29;;;;;;;1.87;1.37;;;46.50;57.80;;;;;;1719607;28;20507;-66
2023/03/18 10:18:26;;;;;;;2.50;1.30;;;46.70;57.80;;;;;;1713967;28;20784;-67
2023/03/18 10:19:18;;;;;;;1.90;1.20;;;46.90;57.20;;;;;;1713874;28;20465;-67
2023/03/18 10:20:17;;;;;;;1.80;1.27;;;47.10;57.00;;;;;;1713770;28;20622;-67
2023/03/18 10:21:20;;;;;;;2.20;1.53;;;47.30;56.90;;;;;;1713975;28;20444;-66
2023/03/18 10:22:26;;;;;;;2.00;1.57;;;47.30;56.40;;;;;;1719182;28;20444;-67
2023/03/18 10:23:26;;;;;;;2.53;1.10;;;47.30;55.70;;;;;;1720577;28;21001;-66
2023/03/18 10:24:32;;;;;;;2.00;1.30;;;47.30;56.00;;;;;;1720604;28;20494;-65
2023/03/18 10:25:28;;;;;;;1.80;1.27;;;47.10;54.40;;;;;;1720473;28;20502;-65
2023/03/18 10:26:26;;;;;;;1.90;1.10;;;46.90;54.80;;;;;;1720526;28;20444;-65
2023/03/18 10:27:23;;;;;;;2.13;1.17;;;46.70;54.90;;;;;;1720559;28;20866;-66
2023/03/18 10:28:41;;;;;;;2.10;1.20;;;46.50;54.80;;;;;;1720538;28;20473;-66
2023/03/18 10:29:39;;;;;;;1.37;1.27;;;46.10;53.80;;;;;;1720494;28;20919;-66
2023/03/18 10:30:52;;;;;;;1.70;1.20;;;45.70;54.30;;;;;;1717157;28;20444;-66
2023/03/18 10:32:01;;;;;;;1.57;1.10;;;45.50;54.30;;;;;;1714680;28;20445;-66
2023/03/18 10:33:04;;;;;;;4.53;1.90;;;45.50;54.60;;;;;;1720462;28;20440;-66
2023/03/18 10:33:58;;;;;;;4.80;2.10;;;45.40;55.50;;;;;;1720514;28;20978;-66
2023/03/18 10:35:00;;;;;;;2.27;1.80;;;45.60;56.10;;;;;;1720392;28;20511;-66
2023/03/18 10:35:58;;;;;;;2.77;2.10;;;45.90;56.30;;;;;;1718713;28;20953;-66
2023/03/18 10:36:56;;;;;;;3.53;2.03;;;46.20;56.40;;;;;;1713772;28;20445;-66
2023/03/18 10:37:54;;;;;;;2.60;1.67;;;46.60;56.30;;;;;;1713737;28;20452;-66